createdAt,value
2022-10-20T00:25:31.656Z,13.81
2022-10-20T00:54:39.473Z,13.42
2022-10-20T01:23:49.703Z,13.31
2022-10-20T01:52:57.722Z,13.3
2022-10-20T02:22:09.072Z,13.31
2022-10-20T02:51:15.078Z,12.94
2022-10-20T03:20:24.967Z,12.99
2022-10-20T03:49:32.460Z,12.8
2022-10-20T04:18:43.749Z,12.65
2022-10-20T04:47:56.306Z,12.7
2022-10-20T05:17:10.219Z,12.47
2022-10-20T05:45:38.150Z,12.67
2022-10-20T06:14:33.123Z,12.67
2022-10-20T06:43:46.609Z,12.89
2022-10-20T07:12:52.135Z,12.83
2022-10-20T07:42:04.879Z,13.14
2022-10-20T08:11:19.797Z,14
2022-10-20T08:40:37.775Z,14.74
2022-10-20T09:09:47.595Z,15.02
2022-10-20T09:38:58.256Z,15.34
2022-10-20T10:08:09.453Z,15.63
2022-10-20T10:37:24.675Z,16.33
2022-10-20T11:06:31.753Z,16.71
2022-10-20T11:35:43.833Z,16.99
2022-10-20T12:04:55.599Z,17.39
2022-10-20T12:34:07.918Z,17.77
2022-10-20T13:03:24.057Z,17.77
2022-10-20T13:31:48.884Z,17.89
2022-10-20T14:00:53.527Z,18.09
2022-10-20T14:30:06.343Z,18.27
2022-10-20T14:59:15.817Z,18.17
2022-10-20T15:28:19.585Z,18.01
2022-10-20T15:57:14.093Z,17.7
2022-10-20T16:26:16.409Z,17.43
2022-10-20T16:55:07.689Z,17.27
2022-10-20T17:24:16.493Z,17.37
2022-10-20T17:53:15.022Z,17.13
2022-10-20T18:22:19.209Z,16.97
2022-10-20T18:51:00.254Z,16.86
2022-10-20T19:20:02.122Z,16.96
2022-10-20T19:49:43.725Z,16.98
2022-10-20T20:18:17.707Z,16.64
2022-10-20T20:47:23.440Z,16.31
2022-10-20T21:16:32.822Z,16.36
2022-10-20T21:45:43.977Z,16.35
2022-10-20T22:14:54.333Z,16.29
2022-10-20T22:44:03.306Z,16.18
2022-10-20T23:13:14.789Z,16.19
2022-10-20T23:42:27.451Z,16.19
